sensor_id;sensor_type;location;lat;lon;timestamp;P1;durP1;ratioP1;P2;durP2;ratioP2
16472;SDS011;8347;52.486;13.432;2023-03-15T00:01:47;15.23;;;4.95;;
16472;SDS011;8347;52.486;13.432;2023-03-15T00:04:34;11.82;;;5.63;;
16472;SDS011;8347;52.486;13.432;2023-03-15T00:07:24;4.65;;;2.40;;
16472;SDS011;8347;52.486;13.432;2023-03-15T00:10:11;7.63;;;2.28;;
16472;SDS011;8347;52.486;13.432;2023-03-15T00:12:58;8.85;;;1.70;;
16472;SDS011;8347;52.486;13.432;2023-03-15T00:15:46;9.77;;;1.95;;
16472;SDS011;8347;52.486;13.432;2023-03-15T00:18:35;4.05;;;1.30;;
16472;SDS011;8347;52.486;13.432;2023-03-15T00:21:22;9.73;;;2.05;;
16472;SDS011;8347;52.486;13.432;2023-03-15T00:24:09;9.02;;;2.33;;
16472;SDS011;8347;52.486;13.432;2023-03-15T00:26:59;10.35;;;2.30;;
16472;SDS011;8347;52.486;13.432;2023-03-15T00:29:46;6.43;;;1.75;;
16472;SDS011;8347;52.486;13.432;2023-03-15T00:32:33;9.07;;;2.42;;
16472;SDS011;8347;52.486;13.432;2023-03-15T00:35:22;12.75;;;3.47;;
16472;SDS011;8347;52.486;13.432;2023-03-15T00:38:09;5.50;;;2.03;;
16472;SDS011;8347;52.486;13.432;2023-03-15T00:40:55;7.13;;;1.42;;
16472;SDS011;8347;52.486;13.432;2023-03-15T00:43:43;14.90;;;2.38;;
16472;SDS011;8347;52.486;13.432;2023-03-15T00:46:30;12.73;;;2.28;;
16472;SDS011;8347;52.486;13.432;2023-03-15T00:49:17;5.13;;;2.33;;
16472;SDS011;8347;52.486;13.432;2023-03-15T00:52:04;10.23;;;1.88;;
16472;SDS011;8347;52.486;13.432;2023-03-15T00:54:52;8.30;;;2.05;;
16472;SDS011;8347;52.486;13.432;2023-03-15T00:57:40;18.52;;;3.13;;
16472;SDS011;8347;52.486;13.432;2023-03-15T01:00:26;7.93;;;1.83;;
16472;SDS011;8347;52.486;13.432;2023-03-15T01:03:13;9.13;;;1.90;;
16472;SDS011;8347;52.486;13.432;2023-03-15T01:06:13;5.45;;;1.88;;
16472;SDS011;8347;52.486;13.432;2023-03-15T01:09:01;6.45;;;1.73;;
16472;SDS011;8347;52.486;13.432;2023-03-15T01:11:49;10.25;;;1.30;;
16472;SDS011;8347;52.486;13.432;2023-03-15T01:14:35;6.55;;;1.80;;
16472;SDS011;8347;52.486;13.432;2023-03-15T01:17:23;10.80;;;2.15;;
16472;SDS011;8347;52.486;13.432;2023-03-15T01:20:13;13.40;;;3.00;;
16472;SDS011;8347;52.486;13.432;2023-03-15T01:23:01;8.65;;;2.17;;
16472;SDS011;8347;52.486;13.432;2023-03-15T01:25:47;11.80;;;1.70;;
16472;SDS011;8347;52.486;13.432;2023-03-15T01:28:34;11.25;;;2.53;;
16472;SDS011;8347;52.486;13.432;2023-03-15T01:31:23;8.07;;;1.60;;
16472;SDS011;8347;52.486;13.432;2023-03-15T01:34:10;3.85;;;1.55;;
16472;SDS011;8347;52.486;13.432;2023-03-15T01:36:57;10.45;;;2.17;;
16472;SDS011;8347;52.486;13.432;2023-03-15T01:39:49;6.68;;;1.60;;
16472;SDS011;8347;52.486;13.432;2023-03-15T01:42:49;9.85;;;1.52;;
16472;SDS011;8347;52.486;13.432;2023-03-15T01:46:00;11.73;;;1.67;;
16472;SDS011;8347;52.486;13.432;2023-03-15T01:52:12;4.57;;;1.70;;
16472;SDS011;8347;52.486;13.432;2023-03-15T01:55:11;7.35;;;2.28;;
16472;SDS011;8347;52.486;13.432;2023-03-15T01:58:11;11.52;;;2.47;;
16472;SDS011;8347;52.486;13.432;2023-03-15T02:01:01;4.47;;;1.52;;
16472;SDS011;8347;52.486;13.432;2023-03-15T02:03:55;4.47;;;1.30;;
16472;SDS011;8347;52.486;13.432;2023-03-15T02:06:49;8.25;;;1.65;;
16472;SDS011;8347;52.486;13.432;2023-03-15T02:09:56;13.20;;;1.90;;
16472;SDS011;8347;52.486;13.432;2023-03-15T02:12:45;5.32;;;1.58;;
16472;SDS011;8347;52.486;13.432;2023-03-15T02:15:33;7.45;;;1.83;;
16472;SDS011;8347;52.486;13.432;2023-03-15T02:18:23;9.98;;;1.70;;
16472;SDS011;8347;52.486;13.432;2023-03-15T02:21:32;8.43;;;1.90;;
16472;SDS011;8347;52.486;13.432;2023-03-15T02:24:38;7.47;;;2.50;;
16472;SDS011;8347;52.486;13.432;2023-03-15T02:27:45;7.03;;;1.85;;
16472;SDS011;8347;52.486;13.432;2023-03-15T02:30:33;5.93;;;2.05;;
16472;SDS011;8347;52.486;13.432;2023-03-15T02:33:26;2.72;;;1.58;;
16472;SDS011;8347;52.486;13.432;2023-03-15T02:36:21;11.13;;;2.47;;
16472;SDS011;8347;52.486;13.432;2023-03-15T02:39:15;13.68;;;4.38;;
16472;SDS011;8347;52.486;13.432;2023-03-15T02:42:05;7.13;;;1.83;;
16472;SDS011;8347;52.486;13.432;2023-03-15T02:44:53;6.10;;;1.80;;
16472;SDS011;8347;52.486;13.432;2023-03-15T02:47:41;7.70;;;1.92;;
16472;SDS011;8347;52.486;13.432;2023-03-15T02:50:29;5.10;;;1.42;;
16472;SDS011;8347;52.486;13.432;2023-03-15T02:53:15;9.15;;;1.73;;
16472;SDS011;8347;52.486;13.432;2023-03-15T02:56:02;5.25;;;1.48;;
16472;SDS011;8347;52.486;13.432;2023-03-15T02:58:48;5.95;;;1.63;;
16472;SDS011;8347;52.486;13.432;2023-03-15T03:01:35;5.93;;;1.38;;
16472;SDS011;8347;52.486;13.432;2023-03-15T03:04:22;8.02;;;1.45;;
16472;SDS011;8347;52.486;13.432;2023-03-15T03:07:09;7.75;;;1.58;;
16472;SDS011;8347;52.486;13.432;2023-03-15T03:10:04;12.32;;;1.55;;
16472;SDS011;8347;52.486;13.432;2023-03-15T03:13:00;6.82;;;1.65;;
16472;SDS011;8347;52.486;13.432;2023-03-15T03:15:54;4.47;;;1.92;;
16472;SDS011;8347;52.486;13.432;2023-03-15T03:18:44;7.60;;;1.67;;
16472;SDS011;8347;52.486;13.432;2023-03-15T03:21:30;4.00;;;1.65;;
16472;SDS011;8347;52.486;13.432;2023-03-15T03:24:17;11.65;;;2.15;;
16472;SDS011;8347;52.486;13.432;2023-03-15T03:27:04;7.00;;;1.30;;
16472;SDS011;8347;52.486;13.432;2023-03-15T03:29:55;5.80;;;1.63;;
16472;SDS011;8347;52.486;13.432;2023-03-15T03:32:41;6.13;;;1.50;;
16472;SDS011;8347;52.486;13.432;2023-03-15T03:35:30;3.85;;;1.50;;
16472;SDS011;8347;52.486;13.432;2023-03-15T03:38:17;8.50;;;1.77;;
16472;SDS011;8347;52.486;13.432;2023-03-15T03:41:09;6.32;;;2.28;;
16472;SDS011;8347;52.486;13.432;2023-03-15T03:43:57;8.13;;;1.80;;
16472;SDS011;8347;52.486;13.432;2023-03-15T03:46:44;4.45;;;1.10;;
16472;SDS011;8347;52.486;13.432;2023-03-15T03:49:32;8.63;;;2.08;;
16472;SDS011;8347;52.486;13.432;2023-03-15T03:52:19;10.75;;;1.80;;
16472;SDS011;8347;52.486;13.432;2023-03-15T03:55:07;9.35;;;2.75;;
16472;SDS011;8347;52.486;13.432;2023-03-15T03:57:53;3.95;;;1.60;;
16472;SDS011;8347;52.486;13.432;2023-03-15T04:00:55;10.93;;;1.80;;
16472;SDS011;8347;52.486;13.432;2023-03-15T04:03:44;12.00;;;2.40;;
16472;SDS011;8347;52.486;13.432;2023-03-15T04:06:35;11.10;;;2.85;;
16472;SDS011;8347;52.486;13.432;2023-03-15T04:09:22;7.90;;;2.00;;
16472;SDS011;8347;52.486;13.432;2023-03-15T04:12:10;6.82;;;1.98;;
16472;SDS011;8347;52.486;13.432;2023-03-15T04:15:00;8.02;;;1.80;;
16472;SDS011;8347;52.486;13.432;2023-03-15T04:17:51;7.93;;;2.22;;
16472;SDS011;8347;52.486;13.432;2023-03-15T04:20:40;8.88;;;1.95;;
16472;SDS011;8347;52.486;13.432;2023-03-15T04:23:36;5.65;;;1.70;;
16472;SDS011;8347;52.486;13.432;2023-03-15T04:26:36;7.80;;;1.80;;
16472;SDS011;8347;52.486;13.432;2023-03-15T04:29:40;9.45;;;1.65;;
16472;SDS011;8347;52.486;13.432;2023-03-15T04:32:37;14.07;;;2.08;;
16472;SDS011;8347;52.486;13.432;2023-03-15T04:35:34;7.43;;;2.10;;
16472;SDS011;8347;52.486;13.432;2023-03-15T04:38:51;4.25;;;1.50;;
16472;SDS011;8347;52.486;13.432;2023-03-15T04:42:09;5.85;;;1.23;;
16472;SDS011;8347;52.486;13.432;2023-03-15T04:45:16;6.80;;;2.30;;
16472;SDS011;8347;52.486;13.432;2023-03-15T04:48:24;8.68;;;1.73;;
16472;SDS011;8347;52.486;13.432;2023-03-15T04:51:27;10.65;;;2.05;;
16472;SDS011;8347;52.486;13.432;2023-03-15T04:54:28;6.93;;;1.67;;
16472;SDS011;8347;52.486;13.432;2023-03-15T04:57:31;11.45;;;2.17;;
16472;SDS011;8347;52.486;13.432;2023-03-15T05:00:29;6.20;;;1.98;;
16472;SDS011;8347;52.486;13.432;2023-03-15T05:03:29;7.35;;;1.80;;
16472;SDS011;8347;52.486;13.432;2023-03-15T05:06:43;10.68;;;2.03;;
16472;SDS011;8347;52.486;13.432;2023-03-15T05:09:49;7.22;;;2.28;;
16472;SDS011;8347;52.486;13.432;2023-03-15T05:12:58;5.95;;;1.55;;
16472;SDS011;8347;52.486;13.432;2023-03-15T05:16:04;8.55;;;1.75;;
16472;SDS011;8347;52.486;13.432;2023-03-15T05:19:13;3.80;;;1.50;;
16472;SDS011;8347;52.486;13.432;2023-03-15T05:22:25;3.53;;;2.00;;
16472;SDS011;8347;52.486;13.432;2023-03-15T05:25:28;5.22;;;2.83;;
16472;SDS011;8347;52.486;13.432;2023-03-15T05:28:26;3.90;;;1.58;;
16472;SDS011;8347;52.486;13.432;2023-03-15T05:31:30;12.60;;;2.28;;
16472;SDS011;8347;52.486;13.432;2023-03-15T05:34:30;5.15;;;2.03;;
16472;SDS011;8347;52.486;13.432;2023-03-15T05:37:30;8.10;;;1.88;;
16472;SDS011;8347;52.486;13.432;2023-03-15T05:40:37;10.63;;;2.40;;
16472;SDS011;8347;52.486;13.432;2023-03-15T05:43:35;10.18;;;2.00;;
16472;SDS011;8347;52.486;13.432;2023-03-15T05:46:32;8.77;;;1.98;;
16472;SDS011;8347;52.486;13.432;2023-03-15T05:49:41;11.13;;;3.15;;
16472;SDS011;8347;52.486;13.432;2023-03-15T05:52:54;14.50;;;2.88;;
16472;SDS011;8347;52.486;13.432;2023-03-15T05:56:00;13.48;;;2.08;;
16472;SDS011;8347;52.486;13.432;2023-03-15T05:59:25;12.77;;;2.70;;
16472;SDS011;8347;52.486;13.432;2023-03-15T06:02:39;4.28;;;1.80;;
16472;SDS011;8347;52.486;13.432;2023-03-15T06:05:40;8.13;;;2.22;;
16472;SDS011;8347;52.486;13.432;2023-03-15T06:08:32;8.88;;;2.88;;
16472;SDS011;8347;52.486;13.432;2023-03-15T06:11:19;10.90;;;2.42;;
16472;SDS011;8347;52.486;13.432;2023-03-15T06:14:07;6.38;;;2.20;;
16472;SDS011;8347;52.486;13.432;2023-03-15T06:17:00;14.43;;;3.92;;
16472;SDS011;8347;52.486;13.432;2023-03-15T06:19:49;10.68;;;2.38;;
16472;SDS011;8347;52.486;13.432;2023-03-15T06:22:35;9.75;;;1.90;;
16472;SDS011;8347;52.486;13.432;2023-03-15T06:25:29;5.18;;;2.20;;
16472;SDS011;8347;52.486;13.432;2023-03-15T06:28:17;10.30;;;2.53;;
16472;SDS011;8347;52.486;13.432;2023-03-15T06:31:11;11.73;;;2.10;;
16472;SDS011;8347;52.486;13.432;2023-03-15T06:34:08;5.18;;;1.85;;
16472;SDS011;8347;52.486;13.432;2023-03-15T06:36:54;5.93;;;1.63;;
16472;SDS011;8347;52.486;13.432;2023-03-15T06:39:41;13.98;;;1.95;;
16472;SDS011;8347;52.486;13.432;2023-03-15T06:42:29;5.72;;;1.67;;
16472;SDS011;8347;52.486;13.432;2023-03-15T06:45:16;6.88;;;1.65;;
16472;SDS011;8347;52.486;13.432;2023-03-15T06:48:04;11.77;;;2.17;;
16472;SDS011;8347;52.486;13.432;2023-03-15T06:50:51;6.13;;;1.83;;
16472;SDS011;8347;52.486;13.432;2023-03-15T06:53:38;8.95;;;1.73;;
16472;SDS011;8347;52.486;13.432;2023-03-15T06:56:24;11.38;;;2.47;;
16472;SDS011;8347;52.486;13.432;2023-03-15T06:59:12;7.60;;;2.60;;
16472;SDS011;8347;52.486;13.432;2023-03-15T07:01:59;6.88;;;2.22;;
16472;SDS011;8347;52.486;13.432;2023-03-15T07:04:47;6.75;;;2.03;;
16472;SDS011;8347;52.486;13.432;2023-03-15T07:07:34;8.40;;;1.90;;
16472;SDS011;8347;52.486;13.432;2023-03-15T07:10:20;4.70;;;2.25;;
16472;SDS011;8347;52.486;13.432;2023-03-15T07:13:07;7.00;;;2.20;;
16472;SDS011;8347;52.486;13.432;2023-03-15T07:15:54;5.63;;;1.95;;
16472;SDS011;8347;52.486;13.432;2023-03-15T07:18:41;6.50;;;2.00;;
16472;SDS011;8347;52.486;13.432;2023-03-15T07:21:28;10.25;;;2.13;;
16472;SDS011;8347;52.486;13.432;2023-03-15T07:24:16;9.15;;;2.47;;
16472;SDS011;8347;52.486;13.432;2023-03-15T07:27:03;5.70;;;2.10;;
16472;SDS011;8347;52.486;13.432;2023-03-15T07:29:50;13.23;;;3.72;;
16472;SDS011;8347;52.486;13.432;2023-03-15T07:32:37;14.38;;;2.30;;
16472;SDS011;8347;52.486;13.432;2023-03-15T07:35:25;5.68;;;2.75;;
16472;SDS011;8347;52.486;13.432;2023-03-15T07:38:11;5.45;;;2.55;;
16472;SDS011;8347;52.486;13.432;2023-03-15T07:41:02;7.70;;;2.10;;
16472;SDS011;8347;52.486;13.432;2023-03-15T07:43:50;6.45;;;2.17;;
16472;SDS011;8347;52.486;13.432;2023-03-15T07:46:37;6.95;;;2.33;;
16472;SDS011;8347;52.486;13.432;2023-03-15T07:49:24;12.48;;;2.38;;
16472;SDS011;8347;52.486;13.432;2023-03-15T07:52:10;4.72;;;2.22;;
16472;SDS011;8347;52.486;13.432;2023-03-15T07:54:57;5.57;;;2.38;;
16472;SDS011;8347;52.486;13.432;2023-03-15T07:57:43;15.23;;;3.15;;
16472;SDS011;8347;52.486;13.432;2023-03-15T08:00:31;9.65;;;2.40;;
16472;SDS011;8347;52.486;13.432;2023-03-15T08:03:18;10.07;;;4.05;;
16472;SDS011;8347;52.486;13.432;2023-03-15T08:06:05;8.15;;;3.78;;
16472;SDS011;8347;52.486;13.432;2023-03-15T08:08:51;10.02;;;3.67;;
16472;SDS011;8347;52.486;13.432;2023-03-15T08:11:37;6.35;;;3.30;;
16472;SDS011;8347;52.486;13.432;2023-03-15T08:14:24;18.13;;;5.55;;
16472;SDS011;8347;52.486;13.432;2023-03-15T08:17:11;7.93;;;4.00;;
16472;SDS011;8347;52.486;13.432;2023-03-15T08:19:57;15.07;;;5.88;;
16472;SDS011;8347;52.486;13.432;2023-03-15T08:22:44;11.23;;;5.05;;
16472;SDS011;8347;52.486;13.432;2023-03-15T08:25:32;13.75;;;3.20;;
16472;SDS011;8347;52.486;13.432;2023-03-15T08:28:18;9.43;;;3.40;;
16472;SDS011;8347;52.486;13.432;2023-03-15T08:31:07;13.32;;;4.22;;
16472;SDS011;8347;52.486;13.432;2023-03-15T08:33:54;8.95;;;4.10;;
16472;SDS011;8347;52.486;13.432;2023-03-15T08:36:40;6.93;;;3.10;;
16472;SDS011;8347;52.486;13.432;2023-03-15T08:39:27;3.47;;;2.28;;
16472;SDS011;8347;52.486;13.432;2023-03-15T08:42:14;7.75;;;2.65;;
16472;SDS011;8347;52.486;13.432;2023-03-15T08:45:01;15.75;;;3.58;;
16472;SDS011;8347;52.486;13.432;2023-03-15T08:47:47;7.72;;;2.75;;
16472;SDS011;8347;52.486;13.432;2023-03-15T08:50:34;9.75;;;2.78;;
16472;SDS011;8347;52.486;13.432;2023-03-15T08:53:21;8.60;;;2.53;;
16472;SDS011;8347;52.486;13.432;2023-03-15T08:56:08;11.07;;;3.15;;
16472;SDS011;8347;52.486;13.432;2023-03-15T08:58:54;5.28;;;2.83;;
16472;SDS011;8347;52.486;13.432;2023-03-15T09:01:41;11.77;;;3.40;;
16472;SDS011;8347;52.486;13.432;2023-03-15T09:04:30;13.75;;;3.20;;
16472;SDS011;8347;52.486;13.432;2023-03-15T09:07:17;8.85;;;4.28;;
16472;SDS011;8347;52.486;13.432;2023-03-15T09:10:04;7.78;;;2.75;;
16472;SDS011;8347;52.486;13.432;2023-03-15T09:12:51;10.93;;;3.33;;
16472;SDS011;8347;52.486;13.432;2023-03-15T09:15:38;10.77;;;2.78;;
16472;SDS011;8347;52.486;13.432;2023-03-15T09:18:25;8.00;;;3.03;;
16472;SDS011;8347;52.486;13.432;2023-03-15T09:21:11;6.95;;;3.17;;
16472;SDS011;8347;52.486;13.432;2023-03-15T09:23:58;9.82;;;3.60;;
16472;SDS011;8347;52.486;13.432;2023-03-15T09:26:45;11.57;;;3.53;;
16472;SDS011;8347;52.486;13.432;2023-03-15T09:29:32;9.98;;;4.55;;
16472;SDS011;8347;52.486;13.432;2023-03-15T09:32:19;5.60;;;3.25;;
16472;SDS011;8347;52.486;13.432;2023-03-15T09:35:09;10.32;;;3.40;;
16472;SDS011;8347;52.486;13.432;2023-03-15T09:37:56;9.18;;;2.90;;
16472;SDS011;8347;52.486;13.432;2023-03-15T09:40:43;7.82;;;2.85;;
16472;SDS011;8347;52.486;13.432;2023-03-15T09:49:20;7.45;;;2.80;;
16472;SDS011;8347;52.486;13.432;2023-03-15T09:52:25;9.40;;;2.40;;
16472;SDS011;8347;52.486;13.432;2023-03-15T09:55:21;9.07;;;2.45;;
16472;SDS011;8347;52.486;13.432;2023-03-15T09:58:13;7.20;;;3.10;;
16472;SDS011;8347;52.486;13.432;2023-03-15T10:01:03;13.40;;;3.35;;
16472;SDS011;8347;52.486;13.432;2023-03-15T10:03:51;6.68;;;2.53;;
16472;SDS011;8347;52.486;13.432;2023-03-15T10:06:40;7.40;;;2.70;;
16472;SDS011;8347;52.486;13.432;2023-03-15T10:09:31;9.68;;;3.30;;
16472;SDS011;8347;52.486;13.432;2023-03-15T10:24:19;11.50;;;3.70;;
16472;SDS011;8347;52.486;13.432;2023-03-15T10:30:25;10.25;;;3.58;;
16472;SDS011;8347;52.486;13.432;2023-03-15T10:33:20;7.95;;;3.13;;
16472;SDS011;8347;52.486;13.432;2023-03-15T10:36:16;12.38;;;5.30;;
16472;SDS011;8347;52.486;13.432;2023-03-15T10:39:03;14.05;;;4.25;;
16472;SDS011;8347;52.486;13.432;2023-03-15T10:41:50;7.40;;;3.70;;
16472;SDS011;8347;52.486;13.432;2023-03-15T10:44:37;11.75;;;3.65;;
16472;SDS011;8347;52.486;13.432;2023-03-15T10:47:24;7.75;;;3.10;;
16472;SDS011;8347;52.486;13.432;2023-03-15T10:50:16;5.20;;;3.08;;
16472;SDS011;8347;52.486;13.432;2023-03-15T10:53:07;9.43;;;2.60;;
16472;SDS011;8347;52.486;13.432;2023-03-15T10:55:59;5.53;;;3.10;;
16472;SDS011;8347;52.486;13.432;2023-03-15T10:58:47;5.13;;;2.65;;
16472;SDS011;8347;52.486;13.432;2023-03-15T11:01:33;7.10;;;2.85;;
16472;SDS011;8347;52.486;13.432;2023-03-15T11:04:21;9.98;;;2.60;;
16472;SDS011;8347;52.486;13.432;2023-03-15T11:07:08;4.57;;;2.13;;
16472;SDS011;8347;52.486;13.432;2023-03-15T11:09:59;6.55;;;1.90;;
16472;SDS011;8347;52.486;13.432;2023-03-15T11:12:45;4.13;;;1.88;;
16472;SDS011;8347;52.486;13.432;2023-03-15T11:15:32;8.07;;;2.28;;
16472;SDS011;8347;52.486;13.432;2023-03-15T11:18:23;7.07;;;3.03;;
16472;SDS011;8347;52.486;13.432;2023-03-15T11:21:13;3.85;;;1.55;;
16472;SDS011;8347;52.486;13.432;2023-03-15T11:24:01;3.22;;;1.60;;
16472;SDS011;8347;52.486;13.432;2023-03-15T11:26:49;7.25;;;1.88;;
16472;SDS011;8347;52.486;13.432;2023-03-15T11:29:38;7.88;;;2.00;;
16472;SDS011;8347;52.486;13.432;2023-03-15T11:32:27;11.55;;;3.22;;
16472;SDS011;8347;52.486;13.432;2023-03-15T11:35:23;7.75;;;2.90;;
16472;SDS011;8347;52.486;13.432;2023-03-15T11:38:21;9.85;;;3.53;;
16472;SDS011;8347;52.486;13.432;2023-03-15T11:50:28;6.10;;;2.55;;
16472;SDS011;8347;52.486;13.432;2023-03-15T11:53:15;8.98;;;2.67;;
16472;SDS011;8347;52.486;13.432;2023-03-15T11:59:12;8.13;;;2.92;;
16472;SDS011;8347;52.486;13.432;2023-03-15T12:05:03;4.65;;;2.13;;
16472;SDS011;8347;52.486;13.432;2023-03-15T12:07:58;4.07;;;1.70;;
16472;SDS011;8347;52.486;13.432;2023-03-15T12:11:00;11.02;;;3.42;;
16472;SDS011;8347;52.486;13.432;2023-03-15T12:16:46;3.38;;;1.80;;
16472;SDS011;8347;52.486;13.432;2023-03-15T12:19:33;5.63;;;2.75;;
16472;SDS011;8347;52.486;13.432;2023-03-15T12:22:19;7.05;;;2.53;;
16472;SDS011;8347;52.486;13.432;2023-03-15T12:25:16;4.32;;;2.10;;
16472;SDS011;8347;52.486;13.432;2023-03-15T12:28:27;5.05;;;2.03;;
16472;SDS011;8347;52.486;13.432;2023-03-15T12:31:16;7.68;;;2.95;;
16472;SDS011;8347;52.486;13.432;2023-03-15T12:34:03;6.72;;;2.58;;
16472;SDS011;8347;52.486;13.432;2023-03-15T12:36:54;3.80;;;1.92;;
16472;SDS011;8347;52.486;13.432;2023-03-15T12:39:43;10.48;;;2.53;;
16472;SDS011;8347;52.486;13.432;2023-03-15T12:50:58;5.43;;;1.80;;
16472;SDS011;8347;52.486;13.432;2023-03-15T12:53:46;5.78;;;2.10;;
16472;SDS011;8347;52.486;13.432;2023-03-15T12:56:39;4.18;;;1.38;;
16472;SDS011;8347;52.486;13.432;2023-03-15T12:59:31;8.50;;;2.08;;
16472;SDS011;8347;52.486;13.432;2023-03-15T13:02:29;4.65;;;1.60;;
16472;SDS011;8347;52.486;13.432;2023-03-15T13:05:17;5.07;;;2.10;;
16472;SDS011;8347;52.486;13.432;2023-03-15T13:08:07;6.22;;;2.03;;
16472;SDS011;8347;52.486;13.432;2023-03-15T13:17:11;4.95;;;2.03;;
16472;SDS011;8347;52.486;13.432;2023-03-15T13:23:24;4.85;;;2.75;;
16472;SDS011;8347;52.486;13.432;2023-03-15T13:26:23;8.52;;;3.28;;
16472;SDS011;8347;52.486;13.432;2023-03-15T13:29:13;7.07;;;2.47;;
16472;SDS011;8347;52.486;13.432;2023-03-15T13:34:58;6.88;;;1.70;;
16472;SDS011;8347;52.486;13.432;2023-03-15T13:37:46;5.53;;;1.77;;
16472;SDS011;8347;52.486;13.432;2023-03-15T13:40:33;4.60;;;1.95;;
16472;SDS011;8347;52.486;13.432;2023-03-15T13:43:23;3.63;;;1.38;;
16472;SDS011;8347;52.486;13.432;2023-03-15T13:46:10;7.82;;;2.05;;
16472;SDS011;8347;52.486;13.432;2023-03-15T13:48:58;7.57;;;1.55;;
16472;SDS011;8347;52.486;13.432;2023-03-15T13:51:46;6.15;;;1.40;;
16472;SDS011;8347;52.486;13.432;2023-03-15T13:54:34;11.45;;;2.35;;
16472;SDS011;8347;52.486;13.432;2023-03-15T13:57:21;8.50;;;1.50;;
16472;SDS011;8347;52.486;13.432;2023-03-15T14:00:09;5.85;;;1.35;;
16472;SDS011;8347;52.486;13.432;2023-03-15T14:02:57;3.75;;;1.55;;
16472;SDS011;8347;52.486;13.432;2023-03-15T14:05:45;3.60;;;1.42;;
16472;SDS011;8347;52.486;13.432;2023-03-15T14:08:34;6.07;;;2.30;;
16472;SDS011;8347;52.486;13.432;2023-03-15T14:14:19;5.95;;;2.35;;
16472;SDS011;8347;52.486;13.432;2023-03-15T14:23:41;6.55;;;1.92;;
16472;SDS011;8347;52.486;13.432;2023-03-15T14:26:29;3.63;;;1.52;;
16472;SDS011;8347;52.486;13.432;2023-03-15T14:29:16;7.97;;;1.88;;
16472;SDS011;8347;52.486;13.432;2023-03-15T14:32:05;6.60;;;2.63;;
16472;SDS011;8347;52.486;13.432;2023-03-15T14:34:57;6.80;;;2.05;;
16472;SDS011;8347;52.486;13.432;2023-03-15T14:37:44;10.50;;;3.53;;
16472;SDS011;8347;52.486;13.432;2023-03-15T14:40:32;14.77;;;3.42;;
16472;SDS011;8347;52.486;13.432;2023-03-15T14:43:19;6.00;;;1.85;;
16472;SDS011;8347;52.486;13.432;2023-03-15T14:46:07;5.28;;;1.40;;
16472;SDS011;8347;52.486;13.432;2023-03-15T14:48:54;6.15;;;1.42;;
16472;SDS011;8347;52.486;13.432;2023-03-15T14:51:41;11.50;;;3.75;;
16472;SDS011;8347;52.486;13.432;2023-03-15T14:54:28;5.38;;;2.25;;
16472;SDS011;8347;52.486;13.432;2023-03-15T14:57:15;6.82;;;2.10;;
16472;SDS011;8347;52.486;13.432;2023-03-15T15:00:02;10.45;;;2.35;;
16472;SDS011;8347;52.486;13.432;2023-03-15T15:02:50;3.95;;;2.33;;
16472;SDS011;8347;52.486;13.432;2023-03-15T15:05:37;2.60;;;1.38;;
16472;SDS011;8347;52.486;13.432;2023-03-15T15:08:26;5.10;;;1.65;;
16472;SDS011;8347;52.486;13.432;2023-03-15T15:11:13;4.07;;;1.65;;
16472;SDS011;8347;52.486;13.432;2023-03-15T15:14:00;5.32;;;1.90;;
16472;SDS011;8347;52.486;13.432;2023-03-15T15:16:47;6.60;;;2.20;;
16472;SDS011;8347;52.486;13.432;2023-03-15T15:19:34;3.88;;;1.67;;
16472;SDS011;8347;52.486;13.432;2023-03-15T15:22:21;7.22;;;1.75;;
16472;SDS011;8347;52.486;13.432;2023-03-15T15:25:18;4.30;;;1.83;;
16472;SDS011;8347;52.486;13.432;2023-03-15T15:28:05;8.52;;;3.67;;
16472;SDS011;8347;52.486;13.432;2023-03-15T15:30:52;9.95;;;4.50;;
16472;SDS011;8347;52.486;13.432;2023-03-15T15:33:38;5.28;;;2.05;;
16472;SDS011;8347;52.486;13.432;2023-03-15T15:36:29;3.75;;;1.70;;
16472;SDS011;8347;52.486;13.432;2023-03-15T15:39:23;6.07;;;2.08;;
16472;SDS011;8347;52.486;13.432;2023-03-15T15:42:12;7.20;;;2.67;;
16472;SDS011;8347;52.486;13.432;2023-03-15T15:44:58;10.45;;;3.75;;
16472;SDS011;8347;52.486;13.432;2023-03-15T15:47:45;7.78;;;3.28;;
16472;SDS011;8347;52.486;13.432;2023-03-15T15:50:32;10.77;;;4.65;;
16472;SDS011;8347;52.486;13.432;2023-03-15T15:53:19;15.98;;;4.55;;
16472;SDS011;8347;52.486;13.432;2023-03-15T15:56:07;25.70;;;5.60;;
16472;SDS011;8347;52.486;13.432;2023-03-15T15:58:57;11.23;;;3.60;;
16472;SDS011;8347;52.486;13.432;2023-03-15T16:01:45;4.55;;;2.70;;
16472;SDS011;8347;52.486;13.432;2023-03-15T16:04:33;8.18;;;2.90;;
16472;SDS011;8347;52.486;13.432;2023-03-15T16:07:20;11.75;;;3.72;;
16472;SDS011;8347;52.486;13.432;2023-03-15T16:10:09;7.18;;;3.40;;
16472;SDS011;8347;52.486;13.432;2023-03-15T16:13:02;7.13;;;2.28;;
16472;SDS011;8347;52.486;13.432;2023-03-15T16:15:49;7.78;;;3.08;;
16472;SDS011;8347;52.486;13.432;2023-03-15T16:18:36;3.15;;;2.05;;
16472;SDS011;8347;52.486;13.432;2023-03-15T16:21:27;5.32;;;2.50;;
16472;SDS011;8347;52.486;13.432;2023-03-15T16:24:18;8.13;;;1.90;;
16472;SDS011;8347;52.486;13.432;2023-03-15T16:27:05;6.45;;;1.55;;
16472;SDS011;8347;52.486;13.432;2023-03-15T16:29:52;2.97;;;1.35;;
16472;SDS011;8347;52.486;13.432;2023-03-15T16:32:40;3.28;;;1.85;;
16472;SDS011;8347;52.486;13.432;2023-03-15T16:35:31;4.10;;;2.20;;
16472;SDS011;8347;52.486;13.432;2023-03-15T16:38:20;4.97;;;2.97;;
16472;SDS011;8347;52.486;13.432;2023-03-15T16:41:10;3.25;;;1.00;;
16472;SDS011;8347;52.486;13.432;2023-03-15T16:43:58;4.38;;;1.58;;
16472;SDS011;8347;52.486;13.432;2023-03-15T16:46:46;4.45;;;1.95;;
16472;SDS011;8347;52.486;13.432;2023-03-15T16:49:33;4.35;;;1.45;;
16472;SDS011;8347;52.486;13.432;2023-03-15T16:52:19;3.90;;;2.20;;
16472;SDS011;8347;52.486;13.432;2023-03-15T16:55:06;5.15;;;1.98;;
16472;SDS011;8347;52.486;13.432;2023-03-15T16:57:55;4.75;;;1.95;;
16472;SDS011;8347;52.486;13.432;2023-03-15T17:00:42;6.45;;;3.15;;
16472;SDS011;8347;52.486;13.432;2023-03-15T17:03:35;5.75;;;3.13;;
16472;SDS011;8347;52.486;13.432;2023-03-15T17:06:22;6.70;;;3.05;;
16472;SDS011;8347;52.486;13.432;2023-03-15T17:09:13;4.63;;;2.45;;
16472;SDS011;8347;52.486;13.432;2023-03-15T17:12:00;6.40;;;3.05;;
16472;SDS011;8347;52.486;13.432;2023-03-15T17:14:46;8.35;;;4.40;;
16472;SDS011;8347;52.486;13.432;2023-03-15T17:17:33;9.98;;;4.07;;
16472;SDS011;8347;52.486;13.432;2023-03-15T17:20:20;8.27;;;3.45;;
16472;SDS011;8347;52.486;13.432;2023-03-15T17:23:12;4.28;;;2.50;;
16472;SDS011;8347;52.486;13.432;2023-03-15T17:25:58;7.55;;;3.38;;
16472;SDS011;8347;52.486;13.432;2023-03-15T17:28:45;11.85;;;4.82;;
16472;SDS011;8347;52.486;13.432;2023-03-15T17:31:32;15.85;;;8.65;;
16472;SDS011;8347;52.486;13.432;2023-03-15T17:34:19;36.78;;;14.20;;
16472;SDS011;8347;52.486;13.432;2023-03-15T17:37:07;17.85;;;8.40;;
16472;SDS011;8347;52.486;13.432;2023-03-15T17:39:53;14.00;;;6.80;;
16472;SDS011;8347;52.486;13.432;2023-03-15T17:42:40;23.02;;;9.00;;
16472;SDS011;8347;52.486;13.432;2023-03-15T17:45:28;18.73;;;6.95;;
16472;SDS011;8347;52.486;13.432;2023-03-15T17:48:15;11.52;;;4.45;;
16472;SDS011;8347;52.486;13.432;2023-03-15T17:51:01;14.40;;;5.47;;
16472;SDS011;8347;52.486;13.432;2023-03-15T17:53:48;14.70;;;5.82;;
16472;SDS011;8347;52.486;13.432;2023-03-15T17:56:35;8.68;;;4.20;;
16472;SDS011;8347;52.486;13.432;2023-03-15T17:59:21;7.53;;;3.67;;
16472;SDS011;8347;52.486;13.432;2023-03-15T18:02:12;8.52;;;3.75;;
16472;SDS011;8347;52.486;13.432;2023-03-15T18:05:00;11.82;;;4.80;;
16472;SDS011;8347;52.486;13.432;2023-03-15T18:07:46;25.90;;;10.80;;
16472;SDS011;8347;52.486;13.432;2023-03-15T18:10:34;25.77;;;11.63;;
16472;SDS011;8347;52.486;13.432;2023-03-15T18:13:21;37.55;;;13.90;;
16472;SDS011;8347;52.486;13.432;2023-03-15T18:16:11;31.20;;;12.45;;